.
WxDataArchive / Data Records for 2006-11-15
2006-11-14 November 2006 2006-11-16

Data Records for Wednesday, 15 November 2006

Time	Temp	Chill	HIndex	Humid	Dewpt	 Wind 	HiWind	WindDir	Rain 	Barom 
-----	----	-----	------	-----	-----	------	------	-------	-----	----- 
00:00	40.1	40.1	40.1	88	36.8	1	3	112	0.00	29.816 
00:05	40.1	40.1	40.1	88	36.8	1	4	112	0.00	29.816 
00:10	40.1	40.1	40.1	88	36.8	1	2	112	0.00	29.816 
00:15	40.1	40.1	40.1	88	36.8	1	3	112	0.00	29.821 
00:20	40.1	40.1	40.1	88	36.8	1	2	112	0.00	29.821 
00:25	40.2	40.2	40.2	88	36.9	1	2	112	0.00	29.821 
00:30	40.2	40.2	40.2	88	36.9	1	3	112	0.00	29.822 
00:35	40.2	40.2	40.2	88	36.9	1	3	112	0.00	29.822 
00:40	40.2	40.2	40.2	88	36.9	0	2	112	0.00	29.822 
00:45	40.2	40.2	40.2	88	36.9	1	2	112	0.00	29.818 
00:50	40.2	40.2	40.2	88	36.9	0	2	112	0.00	29.818 
00:55	40.2	40.2	40.2	88	36.9	1	2	112	0.00	29.818 
01:00	40.2	40.2	40.2	89	37.2	1	2	112	0.00	29.812 
01:05	40.1	40.1	40.1	89	37.1	1	3	112	0.00	29.812 
01:10	40.1	40.1	40.1	89	37.1	1	2	112	0.00	29.812 
01:15	40.1	40.1	40.1	89	37.1	1	2	90	0.00	29.813 
01:20	40.1	40.1	40.1	89	37.1	1	4	90	0.00	29.813 
01:25	40.1	40.1	40.1	89	37.1	2	5	90	0.00	29.813 
01:30	40.1	40.1	40.1	89	37.1	0	2	90	0.00	29.807 
01:35	40.1	40.1	40.1	89	37.1	1	3	90	0.00	29.807 
01:40	40.1	40.1	40.1	89	37.1	1	3	90	0.00	29.807 
01:45	40.2	40.2	40.2	89	37.2	1	2	90	0.00	29.813 
01:50	40.2	40.2	40.2	89	37.2	1	2	90	0.00	29.813 
01:55	40.2	40.2	40.2	89	37.2	1	3	90	0.00	29.813 
02:00	40.2	40.2	40.2	89	37.2	1	3	90	0.00	29.809 
02:05	40.3	40.3	40.3	89	37.3	1	3	90	0.00	29.809 
02:10	40.3	40.3	40.3	89	37.3	1	3	90	0.00	29.809 
02:15	40.3	40.3	40.3	88	37.0	1	2	90	0.00	29.810 
02:20	40.3	40.3	40.3	88	37.0	0	1	90	0.00	29.810 
02:25	40.3	40.3	40.3	89	37.3	1	4	90	0.00	29.810 
02:30	40.3	40.3	40.3	89	37.3	2	3	90	0.00	29.800 
02:35	40.2	40.2	40.2	89	37.2	1	2	112	0.00	29.800 
02:40	40.2	40.2	40.2	89	37.2	2	4	112	0.00	29.800 
02:45	40.2	40.2	40.2	89	37.2	2	4	90	0.00	29.794 
02:50	40.2	40.2	40.2	89	37.2	1	3	112	0.00	29.794 
02:55	40.2	40.2	40.2	89	37.2	2	5	90	0.00	29.794 
03:00	40.2	40.2	40.2	89	37.2	1	3	90	0.00	29.801 
03:05	40.2	40.2	40.2	90	37.5	2	5	90	0.00	29.801 
03:10	40.2	40.2	40.2	90	37.5	1	4	112	0.00	29.801 
03:15	40.2	40.2	40.2	90	37.5	0	2	90	0.00	29.794 
03:20	40.2	40.2	40.2	90	37.5	0	2	90	0.00	29.794 
03:25	40.2	40.2	40.2	90	37.5	2	5	90	0.00	29.794 
03:30	40.2	40.2	40.2	90	37.5	2	4	90	0.00	29.790 
03:35	40.1	40.1	40.1	90	37.4	1	5	90	0.00	29.790 
03:40	40.1	40.1	40.1	90	37.4	1	3	90	0.00	29.790 
03:45	40.2	40.2	40.2	90	37.5	0	1	90	0.00	29.803 
03:50	40.2	40.2	40.2	90	37.5	1	2	90	0.00	29.803 
03:55	40.2	40.2	40.2	90	37.5	1	3	90	0.00	29.803 
04:00	40.2	40.2	40.2	90	37.5	1	3	90	0.00	29.793 
04:05	40.2	40.2	40.2	89	37.2	1	3	90	0.00	29.793 
04:10	40.2	40.2	40.2	89	37.2	1	3	90	0.00	29.793 
04:15	40.3	40.3	40.3	89	37.3	2	3	90	0.00	29.801 
04:20	40.3	40.3	40.3	90	37.6	2	3	112	0.00	29.801 
04:25	40.3	40.3	40.3	90	37.6	1	3	112	0.00	29.801 
04:30	40.3	40.3	40.3	90	37.6	1	3	112	0.00	29.806 
04:35	40.3	40.3	40.3	89	37.3	1	4	112	0.00	29.806 
04:40	40.3	40.3	40.3	89	37.3	1	3	112	0.00	29.806 
04:45	40.3	40.3	40.3	89	37.3	2	5	135	0.00	29.800 
04:50	40.2	40.2	40.2	89	37.2	2	7	112	0.00	29.800 
04:55	40.2	40.2	40.2	89	37.2	2	5	90	0.00	29.800 
05:00	40.2	40.2	40.2	89	37.2	2	4	90	0.00	29.792 
05:05	40.1	40.1	40.1	89	37.1	2	5	90	0.00	29.792 
05:10	40.1	40.1	40.1	89	37.1	3	7	112	0.00	29.792 
05:15	40.1	40.1	40.1	89	37.1	3	5	90	0.00	29.781 
05:20	40.1	40.1	40.1	89	37.1	2	5	112	0.00	29.781 
05:25	40.1	37.4	40.1	89	37.1	4	6	90	0.00	29.781 
05:30	40.1	40.1	40.1	88	36.8	3	7	90	0.00	29.776 
05:35	40.1	40.1	40.1	88	36.8	3	6	90	0.00	29.776 
05:40	40.1	40.1	40.1	89	37.1	2	4	112	0.00	29.776 
05:45	40.1	40.1	40.1	89	37.1	2	6	90	0.00	29.776 
05:50	39.9	39.9	39.9	89	36.9	3	6	90	0.00	29.776 
05:55	39.9	39.9	39.9	89	36.9	3	7	90	0.00	29.776 
06:00	39.9	39.9	39.9	88	36.6	3	6	90	0.00	29.781 
06:05	39.9	39.9	39.9	88	36.6	3	10	90	0.00	29.781 
06:10	39.9	39.9	39.9	89	36.9	2	6	90	0.00	29.781 
06:15	39.8	39.8	39.8	89	36.8	2	5	90	0.00	29.777 
06:20	39.8	39.8	39.8	89	36.8	2	6	90	0.00	29.777 
06:25	39.8	39.8	39.8	88	36.5	2	5	112	0.00	29.777 
06:30	39.6	39.6	39.6	88	36.3	2	7	90	0.00	29.789 
06:35	39.6	39.6	39.6	88	36.3	2	4	112	0.00	29.789 
06:40	39.6	39.6	39.6	88	36.3	2	4	90	0.00	29.789 
06:45	39.6	39.6	39.6	89	36.6	2	3	90	0.00	29.791 
06:50	39.6	39.6	39.6	89	36.6	1	3	112	0.00	29.791 
06:55	39.6	39.6	39.6	89	36.6	2	6	112	0.00	29.791 
07:00	39.6	39.6	39.6	89	36.6	2	5	112	0.00	29.791 
07:05	39.6	39.6	39.6	88	36.3	2	6	112	0.00	29.791 
07:10	39.5	39.5	39.5	88	36.2	2	9	112	0.00	29.791 
07:15	39.5	39.5	39.5	88	36.2	2	4	112	0.00	29.790 
07:20	39.3	39.3	39.3	88	36.0	2	4	112	0.00	29.790 
07:25	39.2	39.2	39.2	88	35.9	2	5	112	0.00	29.790 
07:30	39.2	39.2	39.2	88	35.9	2	5	112	0.00	29.796 
07:35	39.3	39.3	39.3	88	36.0	2	3	90	0.00	29.796 
07:40	39.3	39.3	39.3	88	36.0	1	3	90	0.00	29.796 
07:45	39.5	39.5	39.5	88	36.2	1	4	90	0.00	29.811 
07:50	39.6	39.6	39.6	88	36.3	2	4	112	0.00	29.811 
07:55	39.8	39.8	39.8	87	36.3	2	5	112	0.00	29.811 
08:00	39.8	39.8	39.8	87	36.3	2	4	90	0.00	29.824 
08:05	39.9	39.9	39.9	87	36.4	1	4	90	0.00	29.824 
08:10	39.9	39.9	39.9	87	36.4	2	5	112	0.00	29.824 
08:15	40.1	40.1	40.1	87	36.5	2	5	90	0.00	29.814 
08:20	40.1	40.1	40.1	87	36.5	1	4	112	0.00	29.814 
08:25	40.1	40.1	40.1	87	36.5	2	6	112	0.00	29.814 
08:30	40.2	40.2	40.2	87	36.6	2	6	90	0.00	29.812 
08:35	40.2	40.2	40.2	86	36.4	2	6	90	0.00	29.812 
08:40	40.3	40.3	40.3	86	36.5	2	5	112	0.00	29.812 
08:45	40.3	40.3	40.3	86	36.5	1	5	90	0.00	29.814 
08:50	40.5	40.5	40.5	86	36.6	1	3	22	0.00	29.814 
08:55	40.6	40.6	40.6	86	36.7	1	4	90	0.00	29.814 
09:00	40.8	40.8	40.8	85	36.6	2	5	112	0.00	29.808 
09:05	40.9	40.9	40.9	85	36.7	1	4	112	0.00	29.808 
09:10	41.1	41.1	41.1	84	36.6	2	6	112	0.00	29.808 
09:15	41.2	41.2	41.2	84	36.7	2	5	90	0.00	29.820 
09:20	41.3	41.3	41.3	83	36.5	3	7	112	0.00	29.820 
09:25	41.6	41.6	41.6	83	36.8	2	6	90	0.00	29.820 
09:30	41.6	41.6	41.6	82	36.5	3	9	90	0.00	29.813 
09:35	41.9	41.9	41.9	83	37.1	2	6	112	0.00	29.813 
09:40	42.1	42.1	42.1	82	37.0	3	5	112	0.00	29.813 
09:45	42.2	42.2	42.2	81	36.8	2	9	90	0.00	29.807 
09:50	42.3	42.3	42.3	81	36.9	2	6	112	0.00	29.807 
09:55	42.5	42.5	42.5	81	37.1	3	6	90	0.00	29.807 
10:00	42.6	40.3	42.6	80	36.9	4	7	112	0.00	29.800 
10:05	42.8	42.8	42.8	79	36.7	3	9	112	0.00	29.800 
10:10	42.9	42.9	42.9	79	36.8	3	8	112	0.00	29.800 
10:15	43.2	43.2	43.2	78	36.8	3	10	112	0.00	29.799 
10:20	43.2	41.0	43.2	79	37.1	4	11	90	0.00	29.799 
10:25	43.3	43.3	43.3	78	36.9	3	11	112	0.00	29.799 
10:30	43.5	43.5	43.5	78	37.1	2	7	112	0.00	29.791 
10:35	43.6	43.6	43.6	78	37.2	3	7	112	0.00	29.791 
10:40	43.6	41.5	43.6	77	36.9	4	10	90	0.00	29.791 
10:45	43.8	41.7	43.8	78	37.4	4	11	112	0.00	29.792 
10:50	43.9	41.8	43.9	76	36.8	4	11	90	0.00	29.792 
10:55	44.1	44.1	44.1	76	37.0	3	7	112	0.00	29.792 
11:00	44.1	41.3	44.1	74	36.4	5	12	112	0.00	29.790 
11:05	44.2	41.4	44.2	75	36.8	5	10	112	0.00	29.790 
11:10	44.3	41.5	44.3	74	36.5	5	11	112	0.00	29.790 
11:15	44.5	44.5	44.5	75	37.1	3	9	112	0.00	29.777 
11:20	44.5	41.8	44.5	73	36.4	5	11	112	0.00	29.777 
11:25	44.6	42.6	44.6	74	36.8	4	10	112	0.00	29.777 
11:30	44.8	42.9	44.8	73	36.7	4	9	90	0.00	29.782 
11:35	44.9	43.0	44.9	73	36.8	4	9	112	0.00	29.782 
11:40	44.9	41.6	44.9	72	36.4	6	11	90	0.00	29.782 
11:45	44.9	42.2	44.9	72	36.4	5	11	90	0.00	29.775 
11:50	45.1	42.5	45.1	72	36.6	5	11	112	0.00	29.775 
11:55	45.1	42.5	45.1	71	36.3	5	11	112	0.00	29.775 
12:00	45.1	41.8	45.1	71	36.3	6	13	112	0.00	29.773 
12:05	45.1	43.2	45.1	73	37.0	4	10	112	0.00	29.773 
12:10	45.1	42.5	45.1	71	36.3	5	10	90	0.00	29.773 
12:15	45.1	45.1	45.1	72	36.6	3	10	112	0.00	29.759 
12:20	45.2	43.3	45.2	72	36.7	4	14	112	0.00	29.759 
12:25	45.1	43.2	45.1	71	36.3	4	10	112	0.00	29.759 
12:30	45.1	45.1	45.1	72	36.6	3	7	112	0.00	29.758 
12:35	45.1	43.2	45.1	72	36.6	4	10	112	0.00	29.758 
12:40	45.1	42.5	45.1	71	36.3	5	11	112	0.00	29.758 
12:45	45.1	42.5	45.1	72	36.6	5	10	112	0.00	29.758 
12:50	45.1	43.2	45.1	73	37.0	4	9	112	0.00	29.758 
12:55	45.1	43.2	45.1	73	37.0	4	14	112	0.00	29.758 
13:00	45.1	42.5	45.1	76	38.0	5	12	112	0.00	29.758 
13:05	45.1	42.5	45.1	71	36.3	5	13	112	0.00	29.758 
13:10	45.1	43.2	45.1	73	37.0	4	9	112	0.00	29.758 
13:15	45.1	43.2	45.1	73	37.0	4	10	112	0.00	29.753 
13:20	45.1	45.1	45.1	73	37.0	3	10	112	0.00	29.753 
13:25	44.9	43.0	44.9	76	37.8	4	11	112	0.00	29.753 
13:30	44.6	44.6	44.6	77	37.8	3	7	112	0.00	29.738 
13:35	44.5	42.5	44.5	78	38.1	4	11	90	0.00	29.738 
13:40	44.5	44.5	44.5	78	38.1	3	11	112	0.00	29.738 
13:45	44.5	42.5	44.5	77	37.7	4	10	112	0.00	29.742 
13:50	44.5	41.8	44.5	78	38.1	5	12	112	0.00	29.742 
13:55	44.5	44.5	44.5	78	38.1	2	8	90	0.00	29.742 
14:00	44.5	44.5	44.5	79	38.4	2	7	112	0.00	29.727 
14:05	44.5	44.5	44.5	79	38.4	2	6	90	0.00	29.727 
14:10	44.3	44.3	44.3	79	38.2	3	7	112	0.00	29.727 
14:15	44.2	44.2	44.2	79	38.1	3	10	112	0.00	29.718 
14:20	44.2	42.2	44.2	78	37.8	4	10	90	0.00	29.718 
14:25	44.2	42.2	44.2	78	37.8	4	12	112	0.00	29.718 
14:30	44.2	44.2	44.2	78	37.8	2	6	112	0.00	29.704 
14:35	44.2	42.2	44.2	78	37.8	4	13	90	0.00	29.704 
14:40	44.2	42.2	44.2	77	37.5	4	12	112	0.00	29.704 
14:45	44.2	41.4	44.2	77	37.5	5	14	112	0.00	29.709 
14:50	44.2	42.2	44.2	77	37.5	4	14	112	0.00	29.709 
14:55	44.2	42.2	44.2	77	37.5	4	11	112	0.00	29.709 
15:00	44.3	44.3	44.3	78	37.9	3	8	90	0.00	29.700 
15:05	44.2	40.8	44.2	77	37.5	6	13	112	0.00	29.700 
15:10	44.2	42.2	44.2	77	37.5	4	15	112	0.00	29.700 
15:15	44.2	44.2	44.2	79	38.1	3	12	112	0.00	29.696 
15:20	44.1	40.6	44.1	79	38.0	6	18	112	0.00	29.696 
15:25	43.9	43.9	43.9	81	38.5	3	9	112	0.00	29.696 
15:30	43.8	43.8	43.8	82	38.7	3	9	90	0.00	29.678 
15:35	43.8	43.8	43.8	83	39.0	3	10	90	0.00	29.678 
15:40	43.8	43.8	43.8	83	39.0	3	11	90	0.01	29.678 
15:45	43.6	41.5	43.6	84	39.1	4	10	112	0.00	29.679 
15:50	43.5	41.4	43.5	84	39.0	4	10	90	0.00	29.679 
15:55	43.3	43.3	43.3	84	38.8	3	10	112	0.00	29.679 
16:00	43.2	43.2	43.2	84	38.7	3	9	112	0.00	29.672 
16:05	42.9	40.7	42.9	84	38.4	4	10	112	0.00	29.672 
16:10	42.9	39.9	42.9	84	38.4	5	17	112	0.00	29.672 
16:15	42.8	40.6	42.8	83	38.0	4	11	90	0.00	29.659 
16:20	42.8	40.6	42.8	84	38.3	4	10	112	0.00	29.659 
16:25	42.8	42.8	42.8	84	38.3	3	10	112	0.00	29.659 
16:30	42.8	40.6	42.8	85	38.6	4	12	90	0.00	29.648 
16:35	42.6	39.5	42.6	85	38.4	5	11	112	0.00	29.648 
16:40	42.8	40.6	42.8	85	38.6	4	11	112	0.00	29.648 
16:45	42.8	39.8	42.8	86	38.9	5	11	112	0.00	29.637 
16:50	42.6	38.9	42.6	86	38.7	6	16	112	0.00	29.637 
16:55	42.6	38.9	42.6	86	38.7	6	18	90	0.00	29.637 
17:00	42.6	39.5	42.6	87	39.0	5	15	112	0.00	29.621 
17:05	42.5	38.7	42.5	86	38.6	6	15	112	0.00	29.621 
17:10	42.6	40.3	42.6	86	38.7	4	13	112	0.00	29.621 
17:15	42.6	40.3	42.6	85	38.4	4	16	90	0.00	29.626 
17:20	42.6	40.3	42.6	85	38.4	4	13	112	0.00	29.626 
17:25	42.6	40.3	42.6	85	38.4	4	12	112	0.00	29.626 
17:30	42.6	39.5	42.6	84	38.1	5	14	112	0.00	29.631 
17:35	42.8	39.1	42.8	84	38.3	6	14	112	0.00	29.631 
17:40	42.8	42.8	42.8	84	38.3	3	11	90	0.00	29.631 
17:45	42.8	40.6	42.8	84	38.3	4	12	22	0.00	29.667 
17:50	42.8	40.6	42.8	83	38.0	4	12	90	0.00	29.667 
17:55	42.8	40.6	42.8	83	38.0	4	11	112	0.00	29.667 
18:00	42.8	40.6	42.8	84	38.3	4	11	112	0.00	29.669 
18:05	42.8	39.8	42.8	84	38.3	5	14	112	0.00	29.669 
18:10	42.8	39.8	42.8	84	38.3	5	19	112	0.00	29.669 
18:15	42.8	40.6	42.8	84	38.3	4	13	45	0.00	29.655 
18:20	42.6	40.3	42.6	86	38.7	4	14	112	0.01	29.655 
18:25	42.3	40.0	42.3	87	38.7	4	12	112	0.01	29.655 
18:30	42.3	38.5	42.3	87	38.7	6	14	112	0.00	29.653 
18:35	42.2	39.9	42.2	88	38.9	4	11	22	0.00	29.653 
18:40	42.1	39.7	42.1	89	39.1	4	11	112	0.01	29.653 
18:45	42.1	38.9	42.1	89	39.1	5	11	112	0.00	29.647 
18:50	42.1	38.9	42.1	89	39.1	5	12	90	0.00	29.647 
18:55	41.9	38.0	41.9	89	38.9	6	16	90	0.00	29.647 
19:00	41.9	38.7	41.9	90	39.2	5	13	90	0.00	29.633 
19:05	41.9	38.7	41.9	90	39.2	5	17	90	0.00	29.633 
19:10	41.9	38.7	41.9	90	39.2	5	13	45	0.01	29.633 
19:15	41.9	39.5	41.9	90	39.2	4	9	112	0.00	29.629 
19:20	41.9	38.7	41.9	90	39.2	5	11	112	0.00	29.629 
19:25	41.9	41.9	41.9	90	39.2	3	12	68	0.00	29.629 
19:30	41.9	39.5	41.9	90	39.2	4	11	112	0.00	29.630 
19:35	41.9	39.5	41.9	90	39.2	4	12	45	0.00	29.630 
19:40	42.1	38.3	42.1	90	39.4	6	15	45	0.00	29.630 
19:45	42.1	38.9	42.1	90	39.4	5	15	112	0.00	29.618 
19:50	42.1	38.3	42.1	90	39.4	6	16	90	0.00	29.618 
19:55	42.2	38.4	42.2	90	39.5	6	13	90	0.00	29.618 
20:00	42.2	38.4	42.2	90	39.5	6	19	112	0.00	29.611 
20:05	42.2	39.1	42.2	90	39.5	5	15	112	0.00	29.611 
20:10	42.2	38.4	42.2	90	39.5	6	13	90	0.00	29.611 
20:15	42.2	38.4	42.2	90	39.5	6	15	112	0.00	29.615 
20:20	42.2	42.2	42.2	90	39.5	3	10	22	0.00	29.615 
20:25	42.1	38.9	42.1	91	39.7	5	19	112	0.00	29.615 
20:30	42.1	38.9	42.1	91	39.7	5	12	112	0.00	29.603 
20:35	42.1	38.9	42.1	91	39.7	5	13	112	0.00	29.603 
20:40	41.9	38.0	41.9	91	39.5	6	13	112	0.00	29.603 
20:45	41.9	38.0	41.9	91	39.5	6	16	112	0.00	29.594 
20:50	41.8	38.6	41.8	91	39.4	5	15	90	0.00	29.594 
20:55	41.8	39.4	41.8	91	39.4	4	13	45	0.01	29.594 
21:00	41.8	38.6	41.8	92	39.6	5	15	112	0.01	29.596 
21:05	41.8	38.6	41.8	92	39.6	5	11	22	0.00	29.596 
21:10	41.8	39.4	41.8	92	39.6	4	10	68	0.01	29.596 
21:15	41.8	39.4	41.8	92	39.6	4	12	90	0.00	29.587 
21:20	41.6	38.4	41.6	92	39.5	5	14	45	0.01	29.587 
21:25	41.6	38.4	41.6	92	39.5	5	12	112	0.00	29.587 
21:30	41.6	38.4	41.6	92	39.5	5	14	22	0.00	29.569 
21:35	41.6	39.2	41.6	92	39.5	4	11	90	0.01	29.569 
21:40	41.6	38.4	41.6	92	39.5	5	22	112	0.00	29.569 
21:45	41.8	37.9	41.8	92	39.6	6	21	112	0.01	29.568 
21:50	41.8	37.3	41.8	92	39.6	7	22	22	0.00	29.568 
21:55	41.8	39.4	41.8	92	39.6	4	14	68	0.00	29.568 
22:00	41.9	39.5	41.9	92	39.7	4	11	90	0.01	29.561 
22:05	41.9	38.7	41.9	92	39.7	5	15	112	0.00	29.561 
22:10	41.9	39.5	41.9	92	39.7	4	13	112	0.01	29.561 
22:15	41.9	38.0	41.9	92	39.7	6	17	112	0.00	29.552 
22:20	41.9	38.0	41.9	92	39.7	6	18	112	0.01	29.552 
22:25	42.1	38.3	42.1	92	39.9	6	15	90	0.00	29.552 
22:30	42.1	38.3	42.1	92	39.9	6	15	45	0.02	29.551 
22:35	42.1	39.7	42.1	92	39.9	4	12	68	0.00	29.551 
22:40	42.1	42.1	42.1	93	40.2	3	11	68	0.01	29.551 
22:45	42.1	39.7	42.1	93	40.2	4	12	112	0.01	29.546 
22:50	42.1	42.1	42.1	93	40.2	3	11	112	0.01	29.546 
22:55	42.1	38.9	42.1	93	40.2	5	13	112	0.01	29.546 
23:00	42.1	38.3	42.1	93	40.2	6	14	112	0.01	29.543 
23:05	42.1	38.9	42.1	92	39.9	5	14	112	0.00	29.543 
23:10	42.1	42.1	42.1	93	40.2	3	10	112	0.00	29.543 
23:15	42.1	38.9	42.1	93	40.2	5	10	112	0.01	29.536 
23:20	42.1	38.9	42.1	93	40.2	5	16	68	0.01	29.536 
23:25	42.1	42.1	42.1	93	40.2	3	7	90	0.00	29.536 
23:30	41.9	39.5	41.9	93	40.0	4	14	45	0.00	29.526 
23:35	41.9	41.9	41.9	93	40.0	3	10	90	0.01	29.526 
23:40	41.9	39.5	41.9	93	40.0	4	10	112	0.00	29.526 
23:45	41.9	41.9	41.9	92	39.7	3	14	90	0.00	29.521 
23:50	41.9	41.9	41.9	93	40.0	3	9	112	0.00	29.521 
23:55	41.9	41.9	41.9	93	40.0	3	12	90	0.01	29.521 

CoCoRaHS
IN-AL-39
A2 Web Hosting
Creative Commons License
GoDaddy
Look for:

loaded 2017-12-12 02:01:53 • last modified 2010-11-18 10:43:29
Privacy PolicyDisclaimer
• wx.awcolley.com is powered by PmWiki v.2002016 •
• all content (unless otherwise noted) © 2017 A W Colley